createdAt,value
2022-10-06T00:00:53.170Z,100.00
2022-10-06T00:03:23.187Z,100.00
2022-10-06T00:05:50.988Z,100.00
2022-10-06T00:08:18.888Z,100.00
2022-10-06T00:10:46.066Z,100.00
2022-10-06T00:13:12.907Z,100.00
2022-10-06T00:15:40.092Z,100.00
2022-10-06T00:18:06.900Z,100.00
2022-10-06T00:20:33.665Z,100.00
2022-10-06T00:23:00.751Z,100.00
2022-10-06T00:25:28.284Z,100.00
2022-10-06T00:27:56.080Z,100.00
2022-10-06T00:30:27.348Z,100.00
2022-10-06T00:32:57.364Z,100.00
2022-10-06T00:35:25.952Z,100.00
2022-10-06T00:37:52.931Z,100.00
2022-10-06T00:40:20.482Z,100.00
2022-10-06T00:43:05.838Z,100.00
2022-10-06T00:45:45.190Z,100.00
2022-10-06T00:48:21.962Z,100.00
2022-10-06T00:50:48.889Z,100.00
2022-10-06T00:53:17.047Z,100.00
2022-10-06T00:55:43.951Z,100.00
2022-10-06T00:58:12.332Z,100.00
2022-10-06T01:00:42.905Z,100.00
2022-10-06T01:03:19.185Z,100.00
2022-10-06T01:05:51.061Z,100.00
2022-10-06T01:08:18.493Z,100.00
2022-10-06T01:10:45.657Z,100.00
2022-10-06T01:13:13.399Z,100.00
2022-10-06T01:15:48.403Z,100.00
2022-10-06T01:18:18.778Z,100.00
2022-10-06T01:20:52.800Z,100.00
2022-10-06T01:23:20.168Z,100.00
2022-10-06T01:25:47.371Z,100.00
2022-10-06T01:28:15.100Z,100.00
2022-10-06T01:30:52.926Z,100.00
2022-10-06T01:33:22.344Z,100.00
2022-10-06T01:35:52.325Z,100.00
2022-10-06T01:38:20.499Z,100.00
2022-10-06T01:40:52.283Z,100.00
2022-10-06T01:43:19.538Z,100.00
2022-10-06T01:45:53.865Z,100.00
2022-10-06T01:48:21.062Z,100.00
2022-10-06T01:50:48.118Z,100.00
2022-10-06T01:53:15.273Z,100.00
2022-10-06T01:55:42.026Z,100.00
2022-10-06T01:58:11.438Z,100.00
2022-10-06T02:00:41.606Z,100.00
2022-10-06T02:03:08.771Z,100.00
2022-10-06T02:05:35.678Z,100.00
2022-10-06T02:08:03.058Z,100.00
2022-10-06T02:10:33.177Z,100.00
2022-10-06T02:12:59.880Z,100.00
2022-10-06T02:15:28.255Z,100.00
2022-10-06T02:17:55.904Z,100.00
2022-10-06T02:20:27.440Z,100.00
2022-10-06T02:22:54.053Z,100.00
2022-10-06T02:25:20.818Z,100.00
2022-10-06T02:27:48.333Z,100.00
2022-10-06T02:30:16.855Z,100.00
2022-10-06T02:32:46.230Z,100.00
2022-10-06T02:35:13.686Z,100.00
2022-10-06T02:37:44.151Z,100.00
2022-10-06T02:40:16.681Z,100.00
2022-10-06T02:42:46.113Z,100.00
2022-10-06T02:45:17.233Z,100.00
2022-10-06T02:47:44.810Z,100.00
2022-10-06T02:50:13.758Z,100.00
2022-10-06T02:52:42.832Z,100.00
2022-10-06T02:55:11.050Z,100.00
2022-10-06T02:57:38.014Z,100.00
2022-10-06T03:00:07.745Z,100.00
2022-10-06T03:02:34.730Z,100.00
2022-10-06T03:05:02.186Z,100.00
2022-10-06T03:07:28.905Z,100.00
2022-10-06T03:09:55.654Z,100.00
2022-10-06T03:12:24.500Z,100.00
2022-10-06T03:14:52.211Z,100.00
2022-10-06T03:17:19.738Z,100.00
2022-10-06T03:19:52.055Z,100.00
2022-10-06T03:22:19.051Z,100.00
2022-10-06T03:24:52.677Z,100.00
2022-10-06T03:27:21.409Z,100.00
2022-10-06T03:29:49.249Z,100.00
2022-10-06T03:32:16.123Z,100.00
2022-10-06T03:34:43.751Z,100.00
2022-10-06T03:37:13.490Z,100.00
2022-10-06T03:39:40.169Z,100.00
2022-10-06T03:42:07.383Z,100.00
2022-10-06T03:44:37.129Z,100.00
2022-10-06T03:47:04.817Z,100.00
2022-10-06T03:49:32.726Z,100.00
2022-10-06T03:51:59.378Z,100.00
2022-10-06T03:54:30.504Z,100.00
2022-10-06T03:56:57.151Z,100.00
2022-10-06T03:59:24.271Z,100.00
2022-10-06T04:01:53.077Z,100.00
2022-10-06T04:04:26.718Z,100.00
2022-10-06T04:06:59.068Z,100.00
2022-10-06T04:09:26.042Z,100.00
2022-10-06T04:11:53.266Z,100.00
2022-10-06T04:14:20.911Z,100.00
2022-10-06T04:16:50.174Z,100.00
2022-10-06T04:19:22.380Z,100.00
2022-10-06T04:21:53.458Z,100.00
2022-10-06T04:24:23.591Z,100.00
2022-10-06T04:26:52.615Z,100.00
2022-10-06T04:29:21.170Z,100.00
2022-10-06T04:31:57.225Z,100.00
2022-10-06T04:34:35.654Z,100.00
2022-10-06T04:37:04.075Z,100.00
2022-10-06T04:39:30.901Z,100.00
2022-10-06T04:41:58.212Z,100.00
2022-10-06T04:44:29.006Z,100.00
2022-10-06T04:47:00.688Z,100.00
2022-10-06T04:49:27.718Z,100.00
2022-10-06T04:51:56.182Z,100.00
2022-10-06T04:54:23.178Z,100.00
2022-10-06T04:56:54.462Z,100.00
2022-10-06T04:59:43.816Z,100.00
2022-10-06T05:02:12.032Z,100.00
2022-10-06T05:04:39.675Z,100.00
2022-10-06T05:07:07.318Z,100.00
2022-10-06T05:09:34.531Z,100.00
2022-10-06T05:12:02.630Z,100.00
2022-10-06T05:14:29.372Z,100.00
2022-10-06T05:16:56.147Z,100.00
2022-10-06T05:19:23.250Z,100.00
2022-10-06T05:21:49.973Z,100.00
2022-10-06T05:24:20.527Z,100.00
2022-10-06T05:26:49.579Z,100.00
2022-10-06T05:29:16.643Z,100.00
2022-10-06T05:31:44.970Z,100.00
2022-10-06T05:34:13.882Z,100.00
2022-10-06T05:36:40.633Z,100.00
2022-10-06T05:39:10.597Z,100.00
2022-10-06T05:41:43.623Z,100.00
2022-10-06T05:44:11.636Z,100.00
2022-10-06T05:46:40.129Z,100.00
2022-10-06T05:49:10.272Z,100.00
2022-10-06T05:51:40.532Z,100.00
2022-10-06T05:54:14.406Z,100.00
2022-10-06T05:56:41.562Z,100.00
2022-10-06T05:59:08.780Z,100.00
2022-10-06T06:01:39.845Z,100.00
2022-10-06T06:04:14.287Z,100.00
2022-10-06T06:06:49.019Z,100.00
2022-10-06T06:09:21.331Z,100.00
2022-10-06T06:11:53.087Z,100.00
2022-10-06T06:14:43.392Z,100.00
2022-10-06T06:17:13.783Z,100.00
2022-10-06T06:19:40.546Z,100.00
2022-10-06T06:22:08.347Z,100.00
2022-10-06T06:24:39.018Z,100.00
2022-10-06T06:27:05.843Z,100.00
2022-10-06T06:29:32.671Z,100.00
2022-10-06T06:31:59.438Z,100.00
2022-10-06T06:34:27.442Z,100.00
2022-10-06T06:37:02.335Z,100.00
2022-10-06T06:39:34.243Z,96.01
2022-10-06T06:42:02.112Z,90.74
2022-10-06T06:44:39.195Z,86.09
2022-10-06T06:47:13.479Z,83.73
2022-10-06T06:49:40.643Z,84.81
2022-10-06T06:52:08.991Z,84.71
2022-10-06T06:54:43.111Z,84.65
2022-10-06T06:57:14.827Z,86.10
2022-10-06T06:59:41.487Z,88.49
2022-10-06T07:02:11.909Z,88.30
2022-10-06T07:04:43.966Z,90.03
2022-10-06T07:07:14.240Z,92.46
2022-10-06T07:09:41.754Z,94.11
2022-10-06T07:12:11.453Z,95.78
2022-10-06T07:15:01.629Z,97.48
2022-10-06T07:17:48.996Z,97.84
2022-10-06T07:20:35.169Z,98.31
2022-10-06T07:23:20.582Z,99.16
2022-10-06T07:25:47.411Z,98.90
2022-10-06T07:28:16.981Z,98.35
2022-10-06T07:30:44.847Z,98.13
2022-10-06T07:33:15.801Z,96.96
2022-10-06T07:35:45.126Z,93.77
2022-10-06T07:38:13.506Z,92.89
2022-10-06T07:41:14.516Z,90.26
2022-10-06T07:43:33.314Z,89.38
2022-10-06T07:46:01.204Z,89.06
2022-10-06T07:48:32.494Z,88.78
2022-10-06T07:51:07.293Z,86.86
2022-10-06T07:53:37.447Z,79.17
2022-10-06T07:56:20.714Z,72.00
2022-10-06T07:58:51.731Z,63.51
2022-10-06T08:01:20.844Z,56.99
2022-10-06T08:03:50.883Z,50.91
2022-10-06T08:06:19.317Z,47.37
2022-10-06T08:08:51.832Z,44.91
2022-10-06T08:11:20.976Z,43.41
2022-10-06T08:13:51.832Z,47.94
2022-10-06T08:16:21.393Z,43.23
2022-10-06T08:18:53.409Z,40.79
2022-10-06T08:21:29.677Z,41.46
2022-10-06T08:23:57.777Z,42.01
2022-10-06T08:26:26.369Z,37.65
2022-10-06T08:28:57.502Z,36.93
2022-10-06T08:31:24.521Z,38.98
2022-10-06T08:33:56.671Z,35.93
2022-10-06T08:36:30.853Z,35.24
2022-10-06T08:38:58.574Z,35.79
2022-10-06T08:41:28.779Z,37.16
2022-10-06T08:44:18.552Z,38.67
2022-10-06T08:46:53.154Z,38.37
2022-10-06T08:49:22.341Z,36.50
2022-10-06T08:52:17.291Z,38.60
2022-10-06T08:54:56.159Z,36.07
2022-10-06T08:57:34.757Z,40.42
2022-10-06T09:00:04.103Z,43.02
2022-10-06T09:02:35.377Z,39.84
2022-10-06T09:05:06.224Z,38.10
2022-10-06T09:07:48.471Z,39.18
2022-10-06T09:10:41.194Z,38.45
2022-10-06T09:13:22.174Z,38.43
2022-10-06T09:15:55.947Z,37.11
2022-10-06T09:18:56.449Z,34.03
2022-10-06T09:21:35.930Z,35.08
2022-10-06T09:24:10.827Z,34.17
2022-10-06T09:26:44.101Z,33.76
2022-10-06T09:29:11.689Z,32.79
2022-10-06T09:31:42.204Z,33.87
2022-10-06T09:34:08.843Z,30.82
2022-10-06T09:37:03.240Z,31.27
2022-10-06T09:39:37.022Z,33.25
2022-10-06T09:42:21.099Z,35.69
2022-10-06T09:44:56.881Z,33.28
2022-10-06T09:47:37.150Z,32.27
2022-10-06T09:50:14.501Z,33.33
2022-10-06T09:53:05.939Z,31.60
2022-10-06T09:55:39.261Z,31.35
2022-10-06T09:58:24.194Z,28.90
2022-10-06T10:01:00.473Z,29.19
2022-10-06T10:03:51.463Z,30.01
2022-10-06T10:06:35.183Z,27.87
2022-10-06T10:09:29.100Z,28.71
2022-10-06T10:12:27.864Z,29.51
2022-10-06T10:15:16.207Z,27.18
2022-10-06T10:17:49.248Z,25.62
2022-10-06T10:20:28.340Z,24.50
2022-10-06T10:23:17.806Z,27.40
2022-10-06T10:25:55.394Z,26.94
2022-10-06T10:28:34.863Z,27.68
2022-10-06T10:31:33.481Z,30.73
2022-10-06T10:34:24.833Z,31.04
2022-10-06T10:36:54.678Z,29.17
2022-10-06T10:39:38.315Z,28.47
2022-10-06T10:42:15.394Z,30.10
2022-10-06T10:44:51.836Z,25.04
2022-10-06T10:47:30.786Z,27.07
2022-10-06T10:50:06.695Z,26.42
2022-10-06T10:52:41.494Z,27.41
2022-10-06T10:55:28.547Z,27.85
2022-10-06T10:58:15.009Z,28.97
2022-10-06T11:00:44.404Z,30.01
2022-10-06T11:03:11.920Z,29.75
2022-10-06T11:06:03.127Z,28.72
2022-10-06T11:08:38.614Z,32.96
2022-10-06T11:11:22.466Z,29.27
2022-10-06T11:13:52.801Z,28.81
2022-10-06T11:16:40.259Z,28.01
2022-10-06T11:19:27.681Z,31.61
2022-10-06T11:22:27.084Z,32.28
2022-10-06T11:25:05.079Z,34.39
2022-10-06T11:27:54.481Z,31.84
2022-10-06T11:30:27.020Z,31.60
2022-10-06T11:33:07.976Z,28.79
2022-10-06T11:35:39.497Z,26.93
2022-10-06T11:38:33.136Z,23.45
2022-10-06T11:41:11.740Z,24.32
2022-10-06T11:44:03.782Z,22.42
2022-10-06T11:46:49.518Z,23.11
2022-10-06T11:49:39.332Z,23.67
2022-10-06T11:52:08.338Z,26.05
2022-10-06T11:54:55.097Z,27.71
2022-10-06T11:57:29.636Z,28.14
2022-10-06T12:00:03.667Z,28.60
2022-10-06T12:02:33.985Z,29.40
2022-10-06T12:05:28.681Z,25.94
2022-10-06T12:07:56.765Z,29.72
2022-10-06T12:10:29.412Z,28.91
2022-10-06T12:14:01.671Z,29.52
2022-10-06T12:19:29.821Z,35.34
2022-10-06T12:22:12.373Z,33.08
2022-10-06T12:24:47.593Z,29.69
2022-10-06T12:27:23.371Z,30.95
2022-10-06T12:30:06.728Z,29.20
2022-10-06T12:32:52.706Z,27.42
2022-10-06T12:35:24.876Z,26.76
2022-10-06T12:37:54.747Z,28.46
2022-10-06T12:40:57.960Z,28.43
2022-10-06T12:43:32.553Z,29.92
2022-10-06T12:46:07.647Z,31.95
2022-10-06T12:48:50.175Z,32.72
2022-10-06T12:51:30.458Z,28.84
2022-10-06T12:54:10.172Z,30.18
2022-10-06T12:56:39.819Z,28.80
2022-10-06T12:59:29.174Z,29.63
2022-10-06T13:02:28.738Z,29.60
2022-10-06T13:05:11.087Z,27.48
2022-10-06T13:07:57.344Z,26.32
2022-10-06T13:10:25.100Z,27.83
2022-10-06T13:12:52.922Z,25.93
2022-10-06T13:15:29.726Z,26.51
2022-10-06T13:18:04.226Z,27.14
2022-10-06T13:21:04.138Z,29.07
2022-10-06T13:23:34.874Z,26.83
2022-10-06T13:26:14.714Z,28.24
2022-10-06T13:28:43.861Z,27.38
2022-10-06T13:31:35.239Z,27.41
2022-10-06T13:34:05.297Z,26.69
2022-10-06T13:36:35.413Z,30.17
2022-10-06T13:39:26.370Z,29.60
2022-10-06T13:42:03.489Z,30.93
2022-10-06T13:44:39.210Z,30.56
2022-10-06T13:47:19.225Z,30.76
2022-10-06T13:49:56.718Z,29.72
2022-10-06T13:52:49.061Z,31.60
2022-10-06T13:55:28.721Z,29.22
2022-10-06T13:58:03.566Z,31.03
2022-10-06T14:00:50.162Z,30.74
2022-10-06T14:06:19.245Z,31.62
2022-10-06T14:08:51.863Z,30.03
2022-10-06T14:11:24.783Z,31.04
2022-10-06T14:13:55.454Z,33.34
2022-10-06T14:16:24.762Z,34.85
2022-10-06T14:19:03.821Z,33.00
2022-10-06T14:21:41.493Z,32.05
2022-10-06T14:24:17.086Z,34.24
2022-10-06T14:26:45.631Z,34.14
2022-10-06T14:29:16.119Z,33.17
2022-10-06T14:31:43.754Z,33.47
2022-10-06T14:34:15.666Z,35.95
2022-10-06T14:36:55.033Z,35.42
2022-10-06T14:39:22.497Z,36.22
2022-10-06T14:41:49.231Z,37.91
2022-10-06T14:44:16.324Z,37.06
2022-10-06T14:46:48.076Z,36.98
2022-10-06T14:49:15.795Z,39.10
2022-10-06T14:51:44.071Z,41.16
2022-10-06T14:54:11.873Z,39.79
2022-10-06T14:56:40.174Z,42.05
2022-10-06T14:59:10.054Z,44.30
2022-10-06T15:01:40.144Z,46.69
2022-10-06T15:04:15.351Z,48.87
2022-10-06T15:07:01.122Z,49.25
2022-10-06T15:09:30.874Z,51.31
2022-10-06T15:11:58.508Z,54.06
2022-10-06T15:14:25.635Z,53.31
2022-10-06T15:16:52.582Z,54.16
2022-10-06T15:19:19.523Z,54.97
2022-10-06T15:21:46.394Z,56.03
2022-10-06T15:24:19.105Z,56.32
2022-10-06T15:27:05.678Z,55.80
2022-10-06T15:29:34.880Z,58.12
2022-10-06T15:32:03.690Z,58.65
2022-10-06T15:34:33.551Z,59.46
2022-10-06T15:37:01.013Z,58.02
2022-10-06T15:39:30.362Z,57.40
2022-10-06T15:41:58.092Z,59.47
2022-10-06T15:44:27.420Z,59.97
2022-10-06T15:46:56.029Z,62.33
2022-10-06T15:49:29.594Z,64.07
2022-10-06T15:51:59.432Z,65.54
2022-10-06T15:54:28.560Z,68.20
2022-10-06T15:56:59.399Z,69.32
2022-10-06T15:59:28.010Z,69.71
2022-10-06T16:01:57.977Z,69.86
2022-10-06T16:04:55.172Z,70.55
2022-10-06T16:07:21.879Z,70.99
2022-10-06T16:09:50.212Z,72.12
2022-10-06T16:12:20.510Z,73.67
2022-10-06T16:14:47.915Z,73.07
2022-10-06T16:17:15.244Z,73.13
2022-10-06T16:19:42.499Z,73.87
2022-10-06T16:22:12.277Z,74.89
2022-10-06T16:24:39.317Z,75.74
2022-10-06T16:27:07.363Z,75.62
2022-10-06T16:29:34.473Z,76.52
2022-10-06T16:32:01.548Z,77.56
2022-10-06T16:34:30.330Z,78.55
2022-10-06T16:36:58.055Z,79.62
2022-10-06T16:39:25.233Z,80.51
2022-10-06T16:41:52.664Z,81.50
2022-10-06T16:44:19.385Z,82.31
2022-10-06T16:46:46.942Z,82.90
2022-10-06T16:49:13.988Z,83.05
2022-10-06T16:51:43.346Z,83.90
2022-10-06T16:54:12.661Z,84.68
2022-10-06T16:56:42.450Z,85.00
2022-10-06T16:59:15.141Z,85.99
2022-10-06T17:01:42.576Z,86.31
2022-10-06T17:04:10.894Z,86.44
2022-10-06T17:06:40.122Z,86.56
2022-10-06T17:09:08.636Z,87.31
2022-10-06T17:11:36.111Z,88.10
2022-10-06T17:14:03.437Z,88.11
2022-10-06T17:16:34.257Z,88.67
2022-10-06T17:19:01.375Z,89.00
2022-10-06T17:21:45.465Z,89.05
2022-10-06T17:24:14.712Z,89.70
2022-10-06T17:26:42.982Z,89.56
2022-10-06T17:29:21.300Z,90.04
2022-10-06T17:31:50.713Z,90.15
2022-10-06T17:34:21.944Z,90.35
2022-10-06T17:36:52.123Z,90.73
2022-10-06T17:39:22.552Z,91.53
2022-10-06T17:41:51.954Z,91.97
2022-10-06T17:44:26.638Z,92.74
2022-10-06T17:46:57.255Z,92.92
2022-10-06T17:49:24.929Z,93.16
2022-10-06T17:51:54.745Z,93.80
2022-10-06T17:54:23.408Z,94.04
2022-10-06T17:56:52.524Z,94.63
2022-10-06T17:59:22.529Z,94.58
2022-10-06T18:01:51.346Z,94.25
2022-10-06T18:04:18.549Z,94.37
2022-10-06T18:06:46.611Z,94.27
2022-10-06T18:09:14.799Z,94.32
2022-10-06T18:11:44.024Z,94.76
2022-10-06T18:14:19.567Z,94.68
2022-10-06T18:16:56.231Z,95.20
2022-10-06T18:19:28.684Z,95.63
2022-10-06T18:21:58.813Z,96.03
2022-10-06T18:24:27.704Z,96.94
2022-10-06T18:26:56.702Z,97.36
2022-10-06T18:29:28.243Z,97.45
2022-10-06T18:32:01.339Z,97.47
2022-10-06T18:37:23.423Z,98.95
2022-10-06T18:39:50.255Z,99.71
2022-10-06T18:42:17.868Z,99.29
2022-10-06T18:45:03.156Z,98.99
2022-10-06T18:47:48.540Z,99.02
2022-10-06T18:50:15.529Z,99.79
2022-10-06T18:52:43.780Z,99.88
2022-10-06T18:55:10.648Z,99.64
2022-10-06T18:57:37.706Z,99.76
2022-10-06T19:00:04.900Z,100.00
2022-10-06T19:02:32.351Z,100.00
2022-10-06T19:04:59.240Z,100.00
2022-10-06T19:07:30.825Z,100.00
2022-10-06T19:09:57.522Z,100.00
2022-10-06T19:12:24.239Z,100.00
2022-10-06T19:14:53.726Z,100.00
2022-10-06T19:17:23.024Z,100.00
2022-10-06T19:19:55.244Z,100.00
2022-10-06T19:22:24.431Z,100.00
2022-10-06T19:24:52.407Z,100.00
2022-10-06T19:27:24.335Z,100.00
2022-10-06T19:29:54.216Z,100.00
2022-10-06T19:32:26.507Z,100.00
2022-10-06T19:34:58.022Z,100.00
2022-10-06T19:37:27.856Z,100.00
2022-10-06T19:39:54.531Z,100.00
2022-10-06T19:42:40.088Z,100.00
2022-10-06T19:45:08.600Z,100.00
2022-10-06T19:47:35.584Z,100.00
2022-10-06T19:50:08.799Z,100.00
2022-10-06T19:52:38.526Z,100.00
2022-10-06T19:55:05.573Z,100.00
2022-10-06T19:57:33.596Z,100.00
2022-10-06T20:00:00.651Z,100.00
2022-10-06T20:02:28.832Z,100.00
2022-10-06T20:04:56.581Z,100.00
2022-10-06T20:07:27.938Z,100.00
2022-10-06T20:09:55.814Z,100.00
2022-10-06T20:12:25.400Z,100.00
2022-10-06T20:14:53.692Z,100.00
2022-10-06T20:17:20.853Z,100.00
2022-10-06T20:19:48.172Z,100.00
2022-10-06T20:22:15.018Z,100.00
2022-10-06T20:24:42.061Z,100.00
2022-10-06T20:27:09.088Z,100.00
2022-10-06T20:29:36.154Z,100.00
2022-10-06T20:32:05.454Z,100.00
2022-10-06T20:34:35.241Z,100.00
2022-10-06T20:37:03.647Z,100.00
2022-10-06T20:39:53.766Z,100.00
2022-10-06T20:42:21.004Z,100.00
2022-10-06T20:44:48.451Z,100.00
2022-10-06T20:47:16.763Z,100.00
2022-10-06T20:49:44.456Z,100.00
2022-10-06T20:52:14.530Z,100.00
2022-10-06T20:54:42.466Z,100.00
2022-10-06T20:57:09.672Z,100.00
2022-10-06T20:59:37.851Z,100.00
2022-10-06T21:02:06.321Z,100.00
2022-10-06T21:04:34.451Z,100.00
2022-10-06T21:07:04.034Z,100.00
2022-10-06T21:09:30.939Z,100.00
2022-10-06T21:11:57.673Z,100.00
2022-10-06T21:14:25.342Z,100.00
2022-10-06T21:16:51.990Z,100.00
2022-10-06T21:19:19.556Z,100.00
2022-10-06T21:21:52.124Z,100.00
2022-10-06T21:24:19.572Z,100.00
2022-10-06T21:26:46.416Z,100.00
2022-10-06T21:29:15.503Z,100.00
2022-10-06T21:31:43.729Z,100.00
2022-10-06T21:34:10.984Z,100.00
2022-10-06T21:36:38.464Z,100.00
2022-10-06T21:39:07.132Z,100.00
2022-10-06T21:41:39.877Z,100.00
2022-10-06T21:44:13.690Z,100.00
2022-10-06T21:46:48.027Z,100.00
2022-10-06T21:49:17.965Z,100.00
2022-10-06T21:51:46.912Z,100.00
2022-10-06T21:54:14.705Z,100.00
2022-10-06T21:56:41.799Z,100.00
2022-10-06T21:59:09.328Z,100.00
2022-10-06T22:01:42.237Z,100.00
2022-10-06T22:04:11.876Z,100.00
2022-10-06T22:06:38.803Z,100.00
2022-10-06T22:09:07.481Z,100.00
2022-10-06T22:11:37.325Z,100.00
2022-10-06T22:14:06.668Z,100.00
2022-10-06T22:16:35.652Z,100.00
2022-10-06T22:19:04.638Z,100.00
2022-10-06T22:21:35.820Z,100.00
2022-10-06T22:24:14.710Z,100.00
2022-10-06T22:26:42.953Z,100.00
2022-10-06T22:29:12.627Z,100.00
2022-10-06T22:31:41.541Z,100.00
2022-10-06T22:34:11.244Z,100.00
2022-10-06T22:36:38.129Z,100.00
2022-10-06T22:39:05.587Z,100.00
2022-10-06T22:41:32.602Z,100.00
2022-10-06T22:44:00.195Z,100.00
2022-10-06T22:46:29.845Z,100.00
2022-10-06T22:48:56.712Z,100.00
2022-10-06T22:51:23.918Z,100.00
2022-10-06T22:53:58.144Z,100.00
2022-10-06T22:56:31.637Z,100.00
2022-10-06T22:59:00.137Z,100.00
2022-10-06T23:01:29.533Z,100.00
2022-10-06T23:03:56.893Z,100.00
2022-10-06T23:06:24.682Z,100.00
2022-10-06T23:08:52.131Z,100.00
2022-10-06T23:11:20.497Z,100.00
2022-10-06T23:13:48.561Z,100.00
2022-10-06T23:16:17.213Z,100.00
2022-10-06T23:18:45.145Z,100.00
2022-10-06T23:21:21.667Z,100.00
2022-10-06T23:23:51.670Z,100.00
2022-10-06T23:26:19.330Z,100.00
2022-10-06T23:28:50.307Z,100.00
2022-10-06T23:31:17.641Z,100.00
2022-10-06T23:33:44.332Z,100.00
2022-10-06T23:36:12.448Z,100.00
2022-10-06T23:38:39.646Z,100.00
2022-10-06T23:41:07.174Z,100.00
2022-10-06T23:43:34.740Z,100.00
2022-10-06T23:46:02.170Z,100.00
2022-10-06T23:48:29.601Z,100.00
2022-10-06T23:50:56.383Z,100.00
2022-10-06T23:53:23.974Z,100.00
2022-10-06T23:55:50.652Z,100.00
2022-10-06T23:58:20.674Z,100.00
